sensor_id;sensor_type;location;lat;lon;timestamp;pressure;altitude;pressure_sealevel;temperature;humidity
63204;BME280;49297;43.210;27.914;2022-08-19T00:01:41;100636.50;;;24.74;65.07
63204;BME280;49297;43.210;27.914;2022-08-19T00:04:12;100630.25;;;24.74;64.57
63204;BME280;49297;43.210;27.914;2022-08-19T00:06:40;100639.47;;;24.73;64.33
63204;BME280;49297;43.210;27.914;2022-08-19T00:09:10;100645.91;;;24.72;64.40
63204;BME280;49297;43.210;27.914;2022-08-19T00:11:38;100647.81;;;24.71;64.23
63204;BME280;49297;43.210;27.914;2022-08-19T00:14:09;100644.50;;;24.69;64.12
63204;BME280;49297;43.210;27.914;2022-08-19T00:16:36;100640.16;;;24.68;63.98
63204;BME280;49297;43.210;27.914;2022-08-19T00:19:02;100638.75;;;24.65;63.92
63204;BME280;49297;43.210;27.914;2022-08-19T00:21:29;100635.19;;;24.65;63.87
63204;BME280;49297;43.210;27.914;2022-08-19T00:23:56;100647.91;;;24.64;63.76
63204;BME280;49297;43.210;27.914;2022-08-19T00:26:25;100643.53;;;24.63;63.86
63204;BME280;49297;43.210;27.914;2022-08-19T00:28:51;100642.94;;;24.61;63.56
63204;BME280;49297;43.210;27.914;2022-08-19T00:31:16;100649.44;;;24.60;63.80
63204;BME280;49297;43.210;27.914;2022-08-19T00:33:43;100647.78;;;24.59;63.54
63204;BME280;49297;43.210;27.914;2022-08-19T00:36:11;100649.66;;;24.59;63.39
63204;BME280;49297;43.210;27.914;2022-08-19T00:38:38;100646.38;;;24.57;63.19
63204;BME280;49297;43.210;27.914;2022-08-19T00:41:20;100654.72;;;24.55;63.24
63204;BME280;49297;43.210;27.914;2022-08-19T00:44:03;100654.13;;;24.53;63.03
63204;BME280;49297;43.210;27.914;2022-08-19T00:46:30;100639.97;;;24.51;62.90
63204;BME280;49297;43.210;27.914;2022-08-19T00:48:57;100652.66;;;24.50;62.78
63204;BME280;49297;43.210;27.914;2022-08-19T00:51:25;100651.03;;;24.49;62.47
63204;BME280;49297;43.210;27.914;2022-08-19T00:53:54;100651.03;;;24.49;62.89
63204;BME280;49297;43.210;27.914;2022-08-19T00:56:20;100653.97;;;24.48;62.56
63204;BME280;49297;43.210;27.914;2022-08-19T00:58:46;100649.38;;;24.48;62.12
63204;BME280;49297;43.210;27.914;2022-08-19T01:01:12;100658.06;;;24.50;62.08
63204;BME280;49297;43.210;27.914;2022-08-19T01:03:39;100655.94;;;24.52;61.58
63204;BME280;49297;43.210;27.914;2022-08-19T01:06:05;100651.41;;;24.53;61.80
63204;BME280;49297;43.210;27.914;2022-08-19T01:08:31;100648.72;;;24.53;62.22
63204;BME280;49297;43.210;27.914;2022-08-19T01:10:58;100653.25;;;24.52;62.40
63204;BME280;49297;43.210;27.914;2022-08-19T01:13:27;100651.63;;;24.51;62.52
63204;BME280;49297;43.210;27.914;2022-08-19T01:16:00;100649.13;;;24.50;62.44
63204;BME280;49297;43.210;27.914;2022-08-19T01:18:27;100648.31;;;24.49;62.64
63204;BME280;49297;43.210;27.914;2022-08-19T01:21:01;100646.06;;;24.46;63.18
63204;BME280;49297;43.210;27.914;2022-08-19T01:23:28;100647.13;;;24.45;63.23
63204;BME280;49297;43.210;27.914;2022-08-19T01:26:17;100650.06;;;24.44;63.79
63204;BME280;49297;43.210;27.914;2022-08-19T01:28:45;100645.94;;;24.41;63.70
63204;BME280;49297;43.210;27.914;2022-08-19T01:31:15;100649.09;;;24.38;64.25
63204;BME280;49297;43.210;27.914;2022-08-19T01:33:42;100645.81;;;24.36;64.56
63204;BME280;49297;43.210;27.914;2022-08-19T01:36:12;100641.91;;;24.32;64.93
63204;BME280;49297;43.210;27.914;2022-08-19T01:38:41;100642.97;;;24.31;65.42
63204;BME280;49297;43.210;27.914;2022-08-19T01:41:10;100635.91;;;24.30;65.89
63204;BME280;49297;43.210;27.914;2022-08-19T01:43:37;100638.84;;;24.28;66.05
63204;BME280;49297;43.210;27.914;2022-08-19T01:46:03;100632.84;;;24.26;66.25
63204;BME280;49297;43.210;27.914;2022-08-19T01:48:41;100633.66;;;24.27;66.29
63204;BME280;49297;43.210;27.914;2022-08-19T01:51:08;100639.28;;;24.25;66.44
63204;BME280;49297;43.210;27.914;2022-08-19T01:53:35;100640.38;;;24.24;66.41
63204;BME280;49297;43.210;27.914;2022-08-19T01:56:01;100632.47;;;24.23;66.96
63204;BME280;49297;43.210;27.914;2022-08-19T01:58:38;100634.34;;;24.22;67.14
63204;BME280;49297;43.210;27.914;2022-08-19T02:01:07;100630.22;;;24.20;67.16
63204;BME280;49297;43.210;27.914;2022-08-19T02:03:34;100637.53;;;24.19;67.13
63204;BME280;49297;43.210;27.914;2022-08-19T02:06:03;100626.94;;;24.18;66.68
63204;BME280;49297;43.210;27.914;2022-08-19T02:08:33;100633.38;;;24.17;66.51
63204;BME280;49297;43.210;27.914;2022-08-19T02:11:00;100625.03;;;24.18;66.31
63204;BME280;49297;43.210;27.914;2022-08-19T02:13:26;100622.34;;;24.18;65.79
63204;BME280;49297;43.210;27.914;2022-08-19T02:15:52;100621.53;;;24.18;65.41
63204;BME280;49297;43.210;27.914;2022-08-19T02:18:17;100619.63;;;24.18;65.12
63204;BME280;49297;43.210;27.914;2022-08-19T02:20:44;100618.59;;;24.19;65.51
63204;BME280;49297;43.210;27.914;2022-08-19T02:23:13;100618.38;;;24.21;64.68
63204;BME280;49297;43.210;27.914;2022-08-19T02:25:40;100619.78;;;24.23;64.24
63204;BME280;49297;43.210;27.914;2022-08-19T02:28:06;100615.41;;;24.22;63.84
63204;BME280;49297;43.210;27.914;2022-08-19T02:30:32;100613.78;;;24.21;64.13
63204;BME280;49297;43.210;27.914;2022-08-19T02:32:58;100617.28;;;24.22;64.38
63204;BME280;49297;43.210;27.914;2022-08-19T02:35:25;100617.28;;;24.22;64.66
63204;BME280;49297;43.210;27.914;2022-08-19T02:37:51;100623.78;;;24.21;65.06
63204;BME280;49297;43.210;27.914;2022-08-19T02:40:37;100615.03;;;24.19;65.30
63204;BME280;49297;43.210;27.914;2022-08-19T02:43:09;100616.13;;;24.18;65.58
63204;BME280;49297;43.210;27.914;2022-08-19T02:45:36;100615.31;;;24.17;65.93
63204;BME280;49297;43.210;27.914;2022-08-19T02:48:02;100614.69;;;24.15;66.03
63204;BME280;49297;43.210;27.914;2022-08-19T02:50:30;100608.47;;;24.14;66.24
63204;BME280;49297;43.210;27.914;2022-08-19T02:52:56;100610.56;;;24.12;66.17
63204;BME280;49297;43.210;27.914;2022-08-19T02:55:22;100617.25;;;24.10;66.29
63204;BME280;49297;43.210;27.914;2022-08-19T02:57:49;100612.91;;;24.09;67.09
63204;BME280;49297;43.210;27.914;2022-08-19T03:00:16;100619.34;;;24.08;67.05
63204;BME280;49297;43.210;27.914;2022-08-19T03:02:42;100618.31;;;24.09;67.06
63204;BME280;49297;43.210;27.914;2022-08-19T03:05:09;100619.59;;;24.06;67.29
63204;BME280;49297;43.210;27.914;2022-08-19T03:07:36;100625.25;;;24.05;67.99
63204;BME280;49297;43.210;27.914;2022-08-19T03:10:03;100627.31;;;24.03;67.90
63204;BME280;49297;43.210;27.914;2022-08-19T03:12:29;100633.22;;;24.00;68.15
63204;BME280;49297;43.210;27.914;2022-08-19T03:14:56;100638.47;;;23.94;67.99
63204;BME280;49297;43.210;27.914;2022-08-19T03:17:22;100635.41;;;23.91;68.16
63204;BME280;49297;43.210;27.914;2022-08-19T03:19:47;100639.63;;;23.87;68.02
63204;BME280;49297;43.210;27.914;2022-08-19T03:22:13;100636.31;;;23.85;67.85
63204;BME280;49297;43.210;27.914;2022-08-19T03:24:39;100639.25;;;23.83;68.16
63204;BME280;49297;43.210;27.914;2022-08-19T03:27:05;100632.59;;;23.79;68.23
63204;BME280;49297;43.210;27.914;2022-08-19T03:29:32;100639.31;;;23.76;67.77
63204;BME280;49297;43.210;27.914;2022-08-19T03:32:00;100646.19;;;23.72;67.78
63204;BME280;49297;43.210;27.914;2022-08-19T03:34:30;100642.06;;;23.70;67.68
63204;BME280;49297;43.210;27.914;2022-08-19T03:36:58;100656.03;;;23.67;67.58
63204;BME280;49297;43.210;27.914;2022-08-19T03:39:25;100657.91;;;23.66;66.95
63204;BME280;49297;43.210;27.914;2022-08-19T03:41:53;100656.03;;;23.67;66.49
63204;BME280;49297;43.210;27.914;2022-08-19T03:44:23;100664.97;;;23.67;66.03
63204;BME280;49297;43.210;27.914;2022-08-19T03:46:56;100667.69;;;23.67;65.50
63204;BME280;49297;43.210;27.914;2022-08-19T03:49:24;100665.81;;;23.68;65.05
63204;BME280;49297;43.210;27.914;2022-08-19T03:51:53;100672.03;;;23.68;64.94
63204;BME280;49297;43.210;27.914;2022-08-19T03:54:22;100680.72;;;23.70;64.53
63204;BME280;49297;43.210;27.914;2022-08-19T03:56:50;100683.44;;;23.70;64.38
63204;BME280;49297;43.210;27.914;2022-08-19T03:59:23;100683.19;;;23.72;64.29
63204;BME280;49297;43.210;27.914;2022-08-19T04:01:53;100688.16;;;23.75;64.16
63204;BME280;49297;43.210;27.914;2022-08-19T04:04:19;100679.63;;;23.78;64.11
63204;BME280;49297;43.210;27.914;2022-08-19T04:06:44;100680.25;;;23.80;63.86
63204;BME280;49297;43.210;27.914;2022-08-19T04:09:12;100682.50;;;23.83;63.55
63204;BME280;49297;43.210;27.914;2022-08-19T04:11:45;100684.72;;;23.86;63.54
63204;BME280;49297;43.210;27.914;2022-08-19T04:14:17;100686.16;;;23.89;63.49
63204;BME280;49297;43.210;27.914;2022-08-19T04:16:45;100687.59;;;23.91;63.42
63204;BME280;49297;43.210;27.914;2022-08-19T04:19:13;100690.66;;;23.95;63.68
63204;BME280;49297;43.210;27.914;2022-08-19T04:21:43;100691.03;;;23.99;63.66
63204;BME280;49297;43.210;27.914;2022-08-19T04:24:11;100689.28;;;24.04;63.85
63204;BME280;49297;43.210;27.914;2022-08-19T04:26:37;100691.56;;;24.07;63.98
63204;BME280;49297;43.210;27.914;2022-08-19T04:29:07;100699.00;;;24.12;63.67
63204;BME280;49297;43.210;27.914;2022-08-19T04:31:33;100703.69;;;24.17;63.80
63204;BME280;49297;43.210;27.914;2022-08-19T04:34:08;100701.97;;;24.22;63.87
63204;BME280;49297;43.210;27.914;2022-08-19T04:36:37;100707.72;;;24.26;64.02
63204;BME280;49297;43.210;27.914;2022-08-19T04:39:07;100703.53;;;24.30;63.90
63204;BME280;49297;43.210;27.914;2022-08-19T04:41:34;100701.78;;;24.36;63.95
63204;BME280;49297;43.210;27.914;2022-08-19T04:44:20;100704.63;;;24.41;64.03
63204;BME280;49297;43.210;27.914;2022-08-19T04:46:50;100702.88;;;24.46;64.01
63204;BME280;49297;43.210;27.914;2022-08-19T04:49:20;100702.84;;;24.53;63.79
63204;BME280;49297;43.210;27.914;2022-08-19T04:51:48;100708.38;;;24.58;63.68
63204;BME280;49297;43.210;27.914;2022-08-19T04:54:16;100703.91;;;24.64;63.78
63204;BME280;49297;43.210;27.914;2022-08-19T04:56:42;100703.78;;;24.70;63.77
63204;BME280;49297;43.210;27.914;2022-08-19T04:59:09;100709.13;;;24.77;63.93
63204;BME280;49297;43.210;27.914;2022-08-19T05:01:37;100702.56;;;24.85;63.88
63204;BME280;49297;43.210;27.914;2022-08-19T05:04:05;100707.75;;;24.98;63.58
63204;BME280;49297;43.210;27.914;2022-08-19T05:06:32;100706.47;;;25.13;63.13
63204;BME280;49297;43.210;27.914;2022-08-19T05:09:01;100708.47;;;25.17;62.73
63204;BME280;49297;43.210;27.914;2022-08-19T05:11:29;100703.19;;;25.22;62.62
63204;BME280;49297;43.210;27.914;2022-08-19T05:13:56;100702.50;;;25.27;61.88
63204;BME280;49297;43.210;27.914;2022-08-19T05:16:23;100704.50;;;25.32;61.36
63204;BME280;49297;43.210;27.914;2022-08-19T05:18:50;100699.22;;;25.37;61.00
63204;BME280;49297;43.210;27.914;2022-08-19T05:21:35;100709.91;;;25.43;61.17
63204;BME280;49297;43.210;27.914;2022-08-19T05:24:21;100707.31;;;25.49;60.41
63204;BME280;49297;43.210;27.914;2022-08-19T05:26:49;100703.69;;;25.55;60.11
63204;BME280;49297;43.210;27.914;2022-08-19T05:29:18;100706.84;;;25.63;60.07
63204;BME280;49297;43.210;27.914;2022-08-19T05:31:45;100697.50;;;25.71;59.78
63204;BME280;49297;43.210;27.914;2022-08-19T05:34:12;100696.31;;;25.79;59.44
63204;BME280;49297;43.210;27.914;2022-08-19T05:36:43;100694.28;;;25.86;59.00
63204;BME280;49297;43.210;27.914;2022-08-19T05:39:17;100696.06;;;25.92;58.59
63204;BME280;49297;43.210;27.914;2022-08-19T05:41:45;100688.31;;;25.96;58.25
63204;BME280;49297;43.210;27.914;2022-08-19T05:44:12;100694.66;;;26.01;57.71
63204;BME280;49297;43.210;27.914;2022-08-19T05:46:39;100694.28;;;26.10;57.61
63204;BME280;49297;43.210;27.914;2022-08-19T05:49:05;100695.78;;;26.17;57.22
63204;BME280;49297;43.210;27.914;2022-08-19T05:51:35;100690.78;;;26.26;57.22
63204;BME280;49297;43.210;27.914;2022-08-19T05:54:03;100692.28;;;26.34;56.30
63204;BME280;49297;43.210;27.914;2022-08-19T05:56:29;100688.59;;;26.40;55.91
63204;BME280;49297;43.210;27.914;2022-08-19T05:58:58;100680.81;;;26.44;55.99
63204;BME280;49297;43.210;27.914;2022-08-19T06:01:25;100680.63;;;26.50;56.08
63204;BME280;49297;43.210;27.914;2022-08-19T06:03:52;100679.91;;;26.55;55.30
63204;BME280;49297;43.210;27.914;2022-08-19T06:06:18;100684.38;;;26.61;55.38
63204;BME280;49297;43.210;27.914;2022-08-19T06:08:44;100680.94;;;26.66;55.83
63204;BME280;49297;43.210;27.914;2022-08-19T06:11:53;100682.91;;;26.70;55.08
63204;BME280;49297;43.210;27.914;2022-08-19T06:14:21;100681.34;;;26.74;54.85
63204;BME280;49297;43.210;27.914;2022-08-19T06:16:49;100680.34;;;26.81;54.98
63204;BME280;49297;43.210;27.914;2022-08-19T06:19:22;100670.41;;;26.86;54.57
63204;BME280;49297;43.210;27.914;2022-08-19T06:21:51;100674.03;;;26.92;54.64
63204;BME280;49297;43.210;27.914;2022-08-19T06:24:22;100680.13;;;26.99;54.29
63204;BME280;49297;43.210;27.914;2022-08-19T06:26:51;100671.47;;;27.02;54.54
63204;BME280;49297;43.210;27.914;2022-08-19T06:29:19;100675.34;;;27.06;54.35
63204;BME280;49297;43.210;27.914;2022-08-19T06:31:48;100668.09;;;27.12;54.17
63204;BME280;49297;43.210;27.914;2022-08-19T06:34:15;100681.75;;;27.17;54.22
63204;BME280;49297;43.210;27.914;2022-08-19T06:36:45;100672.03;;;27.21;53.98
63204;BME280;49297;43.210;27.914;2022-08-19T06:39:14;100670.22;;;27.27;53.88
63204;BME280;49297;43.210;27.914;2022-08-19T06:41:44;100663.50;;;27.29;53.98
63204;BME280;49297;43.210;27.914;2022-08-19T06:44:11;100676.31;;;27.34;53.91
63204;BME280;49297;43.210;27.914;2022-08-19T06:46:38;100669.88;;;27.40;53.78
63204;BME280;49297;43.210;27.914;2022-08-19T06:49:06;100666.16;;;27.46;53.29
63204;BME280;49297;43.210;27.914;2022-08-19T06:51:35;100674.63;;;27.50;53.26
63204;BME280;49297;43.210;27.914;2022-08-19T06:54:02;100670.91;;;27.56;53.20
63204;BME280;49297;43.210;27.914;2022-08-19T06:56:30;100672.06;;;27.60;52.61
63204;BME280;49297;43.210;27.914;2022-08-19T06:59:06;100677.25;;;27.62;52.79
63204;BME280;49297;43.210;27.914;2022-08-19T07:04:22;100676.84;;;27.75;52.96
63204;BME280;49297;43.210;27.914;2022-08-19T07:06:55;100667.19;;;27.84;52.80
63204;BME280;49297;43.210;27.914;2022-08-19T07:09:22;100661.06;;;27.94;52.37
63204;BME280;49297;43.210;27.914;2022-08-19T07:11:52;100675.78;;;27.98;52.27
63204;BME280;49297;43.210;27.914;2022-08-19T07:14:28;100670.66;;;28.02;51.91
63204;BME280;49297;43.210;27.914;2022-08-19T07:16:56;100669.66;;;28.08;51.67
63204;BME280;49297;43.210;27.914;2022-08-19T07:19:25;100648.75;;;28.14;51.66
63204;BME280;49297;43.210;27.914;2022-08-19T07:21:53;100660.28;;;28.21;51.66
63204;BME280;49297;43.210;27.914;2022-08-19T07:24:24;100661.94;;;28.27;51.43
63204;BME280;49297;43.210;27.914;2022-08-19T07:29:32;100659.09;;;28.39;51.05
63204;BME280;49297;43.210;27.914;2022-08-19T07:32:00;100653.94;;;28.42;50.70
63204;BME280;49297;43.210;27.914;2022-08-19T07:34:29;100658.88;;;28.45;50.87
63204;BME280;49297;43.210;27.914;2022-08-19T07:36:55;100654.28;;;28.51;50.72
63204;BME280;49297;43.210;27.914;2022-08-19T07:39:28;100660.06;;;28.55;50.56
63204;BME280;49297;43.210;27.914;2022-08-19T07:41:57;100659.88;;;28.61;50.35
63204;BME280;49297;43.210;27.914;2022-08-19T07:44:25;100662.66;;;28.72;50.48
63204;BME280;49297;43.210;27.914;2022-08-19T07:46:53;100655.94;;;28.79;50.28
63204;BME280;49297;43.210;27.914;2022-08-19T07:49:21;100650.53;;;28.84;49.85
63204;BME280;49297;43.210;27.914;2022-08-19T07:51:50;100658.44;;;28.91;49.85
63204;BME280;49297;43.210;27.914;2022-08-19T07:54:20;100655.81;;;29.01;49.63
63204;BME280;49297;43.210;27.914;2022-08-19T07:56:46;100662.41;;;29.11;49.31
63204;BME280;49297;43.210;27.914;2022-08-19T07:59:12;100656.19;;;29.15;48.52
63204;BME280;49297;43.210;27.914;2022-08-19T08:01:39;100657.59;;;29.23;48.71
63204;BME280;49297;43.210;27.914;2022-08-19T08:04:06;100650.56;;;29.27;47.71
63204;BME280;49297;43.210;27.914;2022-08-19T08:06:52;100649.50;;;29.33;47.03
63204;BME280;49297;43.210;27.914;2022-08-19T08:09:38;100644.06;;;29.38;46.91
63204;BME280;49297;43.210;27.914;2022-08-19T08:12:17;100641.38;;;29.43;47.06
63204;BME280;49297;43.210;27.914;2022-08-19T08:14:47;100634.56;;;29.51;46.42
63204;BME280;49297;43.210;27.914;2022-08-19T08:17:16;100640.06;;;29.56;46.22
63204;BME280;49297;43.210;27.914;2022-08-19T08:19:43;100638.97;;;29.62;46.16
63204;BME280;49297;43.210;27.914;2022-08-19T08:22:12;100637.94;;;29.69;45.86
63204;BME280;49297;43.210;27.914;2022-08-19T08:25:07;100640.19;;;29.77;46.21
63204;BME280;49297;43.210;27.914;2022-08-19T08:27:38;100637.72;;;29.86;45.79
63204;BME280;49297;43.210;27.914;2022-08-19T08:30:14;100631.47;;;29.90;45.75
63204;BME280;49297;43.210;27.914;2022-08-19T08:32:41;100641.03;;;29.98;45.46
63204;BME280;49297;43.210;27.914;2022-08-19T08:35:13;100640.53;;;30.06;44.49
63204;BME280;49297;43.210;27.914;2022-08-19T08:37:39;100636.41;;;30.09;43.61
63204;BME280;49297;43.210;27.914;2022-08-19T08:40:14;100633.69;;;30.14;43.97
63204;BME280;49297;43.210;27.914;2022-08-19T08:43:10;100636.44;;;30.19;44.07
63204;BME280;49297;43.210;27.914;2022-08-19T08:45:38;100630.97;;;30.19;44.18
63204;BME280;49297;43.210;27.914;2022-08-19T08:48:19;100629.06;;;30.25;44.02
63204;BME280;49297;43.210;27.914;2022-08-19T08:50:47;100626.34;;;30.25;43.82
63204;BME280;49297;43.210;27.914;2022-08-19T08:53:17;100625.00;;;30.22;43.43
63204;BME280;49297;43.210;27.914;2022-08-19T08:55:44;100633.72;;;30.19;43.73
63204;BME280;49297;43.210;27.914;2022-08-19T08:58:15;100629.34;;;30.23;43.84
63204;BME280;49297;43.210;27.914;2022-08-19T09:00:48;100625.81;;;30.33;44.02
63204;BME280;49297;43.210;27.914;2022-08-19T09:03:24;100627.22;;;30.41;43.81
63204;BME280;49297;43.210;27.914;2022-08-19T09:06:04;100626.13;;;30.42;43.01
63204;BME280;49297;43.210;27.914;2022-08-19T09:09:05;100630.47;;;30.43;42.64
63204;BME280;49297;43.210;27.914;2022-08-19T09:11:47;100625.03;;;30.48;42.85
63204;BME280;49297;43.210;27.914;2022-08-19T09:14:50;100624.50;;;30.51;41.43
63204;BME280;49297;43.210;27.914;2022-08-19T09:17:21;100630.75;;;30.56;41.74
63204;BME280;49297;43.210;27.914;2022-08-19T09:22:42;100633.22;;;30.79;41.99
63204;BME280;49297;43.210;27.914;2022-08-19T09:25:15;100636.19;;;30.87;42.15
63204;BME280;49297;43.210;27.914;2022-08-19T09:27:42;100632.38;;;30.88;41.96
63204;BME280;49297;43.210;27.914;2022-08-19T09:30:12;100636.47;;;30.91;41.51
63204;BME280;49297;43.210;27.914;2022-08-19T09:32:38;100634.31;;;30.98;42.18
63204;BME280;49297;43.210;27.914;2022-08-19T09:35:07;100631.28;;;31.05;41.95
63204;BME280;49297;43.210;27.914;2022-08-19T09:37:33;100639.19;;;31.11;41.57
63204;BME280;49297;43.210;27.914;2022-08-19T09:39:59;100643.84;;;31.16;41.35
63204;BME280;49297;43.210;27.914;2022-08-19T09:42:24;100632.34;;;31.19;41.67
63204;BME280;49297;43.210;27.914;2022-08-19T09:44:50;100632.31;;;31.24;41.56
63204;BME280;49297;43.210;27.914;2022-08-19T09:47:16;100633.38;;;31.34;40.80
63204;BME280;49297;43.210;27.914;2022-08-19T09:49:42;100628.44;;;31.41;40.80
63204;BME280;49297;43.210;27.914;2022-08-19T09:52:10;100638.56;;;31.50;40.74
63204;BME280;49297;43.210;27.914;2022-08-19T09:54:38;100632.25;;;31.55;40.34
63204;BME280;49297;43.210;27.914;2022-08-19T09:57:04;100634.16;;;31.60;39.97
63204;BME280;49297;43.210;27.914;2022-08-19T09:59:30;100631.13;;;31.66;40.35
63204;BME280;49297;43.210;27.914;2022-08-19T10:01:57;100627.50;;;31.71;40.14
63204;BME280;49297;43.210;27.914;2022-08-19T10:04:23;100633.81;;;31.72;40.89
63204;BME280;49297;43.210;27.914;2022-08-19T10:07:09;100636.84;;;31.65;40.26
63204;BME280;49297;43.210;27.914;2022-08-19T10:09:35;100634.13;;;31.65;39.74
63204;BME280;49297;43.210;27.914;2022-08-19T10:12:03;100628.34;;;31.72;39.68
63204;BME280;49297;43.210;27.914;2022-08-19T10:14:30;100637.88;;;31.79;39.80
63204;BME280;49297;43.210;27.914;2022-08-19T10:16:56;100632.38;;;31.84;39.94
63204;BME280;49297;43.210;27.914;2022-08-19T10:19:22;100631.56;;;31.84;39.87
63204;BME280;49297;43.210;27.914;2022-08-19T10:21:48;100634.56;;;31.87;39.96
63204;BME280;49297;43.210;27.914;2022-08-19T10:24:14;100639.16;;;31.97;38.97
63204;BME280;49297;43.210;27.914;2022-08-19T10:26:40;100637.19;;;32.03;38.84
63204;BME280;49297;43.210;27.914;2022-08-19T10:29:12;100635.00;;;32.05;38.40
63204;BME280;49297;43.210;27.914;2022-08-19T10:31:41;100642.13;;;32.11;38.62
63204;BME280;49297;43.210;27.914;2022-08-19T10:34:11;100638.47;;;32.21;38.03
63204;BME280;49297;43.210;27.914;2022-08-19T10:36:37;100630.44;;;32.35;37.76
63204;BME280;49297;43.210;27.914;2022-08-19T10:39:07;100637.13;;;32.53;37.06
63204;BME280;49297;43.210;27.914;2022-08-19T10:41:46;100635.69;;;32.66;36.79
63204;BME280;49297;43.210;27.914;2022-08-19T10:44:14;100644.94;;;32.75;36.67
63204;BME280;49297;43.210;27.914;2022-08-19T10:46:43;100643.47;;;32.82;35.91
63204;BME280;49297;43.210;27.914;2022-08-19T10:49:13;100649.44;;;32.90;35.79
63204;BME280;49297;43.210;27.914;2022-08-19T10:51:40;100641.88;;;33.06;35.55
63204;BME280;49297;43.210;27.914;2022-08-19T10:54:25;100658.91;;;33.32;35.80
63204;BME280;49297;43.210;27.914;2022-08-19T10:57:11;100658.38;;;33.54;38.05
63204;BME280;49297;43.210;27.914;2022-08-19T10:59:37;100670.16;;;33.54;40.83
63204;BME280;49297;43.210;27.914;2022-08-19T11:02:07;100658.19;;;33.45;41.87
63204;BME280;49297;43.210;27.914;2022-08-19T11:04:36;100653.91;;;33.39;42.47
63204;BME280;49297;43.210;27.914;2022-08-19T11:07:03;100661.53;;;33.42;42.54
63204;BME280;49297;43.210;27.914;2022-08-19T11:09:30;100671.97;;;33.40;43.75
63204;BME280;49297;43.210;27.914;2022-08-19T11:11:56;100675.28;;;33.37;44.21
63204;BME280;49297;43.210;27.914;2022-08-19T11:14:23;100674.47;;;33.36;45.27
63204;BME280;49297;43.210;27.914;2022-08-19T11:16:52;100670.03;;;33.41;45.70
63204;BME280;49297;43.210;27.914;2022-08-19T11:19:22;100665.19;;;33.56;46.18
63204;BME280;49297;43.210;27.914;2022-08-19T11:21:50;100672.47;;;33.90;45.84
63204;BME280;49297;43.210;27.914;2022-08-19T11:24:23;100672.91;;;33.98;45.56
63204;BME280;49297;43.210;27.914;2022-08-19T11:26:52;100672.50;;;33.66;46.12
63204;BME280;49297;43.210;27.914;2022-08-19T11:29:20;100670.28;;;33.20;47.84
63204;BME280;49297;43.210;27.914;2022-08-19T11:31:48;100669.25;;;33.11;49.08
63204;BME280;49297;43.210;27.914;2022-08-19T11:34:20;100665.09;;;33.67;48.39
63204;BME280;49297;43.210;27.914;2022-08-19T11:36:46;100663.00;;;34.40;46.87
63204;BME280;49297;43.210;27.914;2022-08-19T11:39:16;100675.31;;;34.94;44.73
63204;BME280;49297;43.210;27.914;2022-08-19T11:41:43;100681.06;;;34.60;44.41
63204;BME280;49297;43.210;27.914;2022-08-19T11:44:09;100674.25;;;34.00;45.63
63204;BME280;49297;43.210;27.914;2022-08-19T11:46:37;100665.56;;;33.50;47.19
63204;BME280;49297;43.210;27.914;2022-08-19T11:49:04;100675.59;;;33.84;46.97
63204;BME280;49297;43.210;27.914;2022-08-19T11:51:32;100664.16;;;34.52;45.95
63204;BME280;49297;43.210;27.914;2022-08-19T11:53:59;100671.50;;;35.23;45.04
63204;BME280;49297;43.210;27.914;2022-08-19T11:56:27;100671.38;;;35.70;44.15
63204;BME280;49297;43.210;27.914;2022-08-19T11:58:54;100673.38;;;35.92;43.45
63204;BME280;49297;43.210;27.914;2022-08-19T12:01:22;100668.91;;;35.96;43.13
63204;BME280;49297;43.210;27.914;2022-08-19T12:03:50;100671.94;;;36.08;42.13
63204;BME280;49297;43.210;27.914;2022-08-19T12:06:21;100672.84;;;36.40;40.94
63204;BME280;49297;43.210;27.914;2022-08-19T12:08:51;100665.56;;;36.67;40.69
63204;BME280;49297;43.210;27.914;2022-08-19T12:11:17;100653.88;;;36.84;40.45
63204;BME280;49297;43.210;27.914;2022-08-19T12:13:43;100656.88;;;36.73;40.30
63204;BME280;49297;43.210;27.914;2022-08-19T12:16:23;100670.34;;;36.75;40.01
63204;BME280;49297;43.210;27.914;2022-08-19T12:18:49;100664.63;;;36.94;39.69
63204;BME280;49297;43.210;27.914;2022-08-19T12:21:19;100664.50;;;37.08;39.65
63204;BME280;49297;43.210;27.914;2022-08-19T12:23:48;100657.09;;;36.63;40.57
63204;BME280;49297;43.210;27.914;2022-08-19T12:26:16;100655.50;;;36.39;40.96
63204;BME280;49297;43.210;27.914;2022-08-19T12:28:42;100658.34;;;36.71;41.02
63204;BME280;49297;43.210;27.914;2022-08-19T12:31:08;100658.72;;;36.78;40.62
63204;BME280;49297;43.210;27.914;2022-08-19T12:33:38;100664.59;;;36.85;39.62
63204;BME280;49297;43.210;27.914;2022-08-19T12:36:06;100656.19;;;36.90;40.14
63204;BME280;49297;43.210;27.914;2022-08-19T12:38:35;100667.59;;;37.06;39.51
63204;BME280;49297;43.210;27.914;2022-08-19T12:41:01;100663.94;;;37.20;39.26
63204;BME280;49297;43.210;27.914;2022-08-19T12:43:30;100657.13;;;37.17;39.68
63204;BME280;49297;43.210;27.914;2022-08-19T12:45:59;100660.38;;;37.19;39.66
63204;BME280;49297;43.210;27.914;2022-08-19T12:48:25;100661.91;;;37.03;40.43
63204;BME280;49297;43.210;27.914;2022-08-19T12:50:51;100654.66;;;36.84;40.46
63204;BME280;49297;43.210;27.914;2022-08-19T12:53:16;100654.53;;;36.67;40.22
63204;BME280;49297;43.210;27.914;2022-08-19T12:55:42;100656.38;;;36.49;40.83
63204;BME280;49297;43.210;27.914;2022-08-19T12:58:09;100662.91;;;36.16;40.84
63204;BME280;49297;43.210;27.914;2022-08-19T13:00:35;100668.41;;;35.52;41.94